sensor_id;sensor_type;location;lat;lon;timestamp;P1;durP1;ratioP1;P2;durP2;ratioP2
12556;SDS011;6344;49.932;8.308;2022-09-04T00:00:22;7.07;;;6.37;;
12556;SDS011;6344;49.932;8.308;2022-09-04T00:02:52;7.70;;;6.10;;
12556;SDS011;6344;49.932;8.308;2022-09-04T00:05:41;8.53;;;6.10;;
12556;SDS011;6344;49.932;8.308;2022-09-04T00:08:24;9.47;;;6.07;;
12556;SDS011;6344;49.932;8.308;2022-09-04T00:11:01;6.77;;;6.17;;
12556;SDS011;6344;49.932;8.308;2022-09-04T00:13:35;7.70;;;6.23;;
12556;SDS011;6344;49.932;8.308;2022-09-04T00:16:05;7.33;;;6.73;;
12556;SDS011;6344;49.932;8.308;2022-09-04T00:18:36;8.33;;;6.47;;
12556;SDS011;6344;49.932;8.308;2022-09-04T00:21:08;8.60;;;6.90;;
12556;SDS011;6344;49.932;8.308;2022-09-04T00:23:42;7.13;;;6.53;;
12556;SDS011;6344;49.932;8.308;2022-09-04T00:26:16;7.67;;;6.97;;
12556;SDS011;6344;49.932;8.308;2022-09-04T00:28:52;9.43;;;7.13;;
12556;SDS011;6344;49.932;8.308;2022-09-04T00:31:24;8.47;;;7.17;;
12556;SDS011;6344;49.932;8.308;2022-09-04T00:33:59;7.60;;;6.90;;
12556;SDS011;6344;49.932;8.308;2022-09-04T00:36:31;7.80;;;7.10;;
12556;SDS011;6344;49.932;8.308;2022-09-04T00:39:07;8.80;;;7.90;;
12556;SDS011;6344;49.932;8.308;2022-09-04T00:41:38;7.57;;;6.97;;
12556;SDS011;6344;49.932;8.308;2022-09-04T00:50:19;7.90;;;7.10;;
12556;SDS011;6344;49.932;8.308;2022-09-04T00:53:11;7.47;;;6.80;;
12556;SDS011;6344;49.932;8.308;2022-09-04T00:56:09;9.67;;;8.13;;
12556;SDS011;6344;49.932;8.308;2022-09-04T00:58:46;9.67;;;8.70;;
12556;SDS011;6344;49.932;8.308;2022-09-04T01:01:23;9.73;;;8.73;;
12556;SDS011;6344;49.932;8.308;2022-09-04T01:03:56;10.63;;;9.70;;
12556;SDS011;6344;49.932;8.308;2022-09-04T01:06:45;11.50;;;9.83;;
12556;SDS011;6344;49.932;8.308;2022-09-04T01:12:22;11.27;;;10.13;;
12556;SDS011;6344;49.932;8.308;2022-09-04T01:14:58;11.60;;;10.47;;
12556;SDS011;6344;49.932;8.308;2022-09-04T01:17:34;11.87;;;10.77;;
12556;SDS011;6344;49.932;8.308;2022-09-04T01:20:08;13.10;;;10.83;;
12556;SDS011;6344;49.932;8.308;2022-09-04T01:28:41;18.17;;;14.70;;
12556;SDS011;6344;49.932;8.308;2022-09-04T01:31:19;15.73;;;13.00;;
12556;SDS011;6344;49.932;8.308;2022-09-04T01:33:54;19.53;;;14.87;;
12556;SDS011;6344;49.932;8.308;2022-09-04T01:36:33;19.23;;;15.53;;
12556;SDS011;6344;49.932;8.308;2022-09-04T01:39:06;19.27;;;14.83;;
12556;SDS011;6344;49.932;8.308;2022-09-04T01:41:34;18.00;;;15.37;;
12556;SDS011;6344;49.932;8.308;2022-09-04T01:44:08;14.07;;;11.00;;
12556;SDS011;6344;49.932;8.308;2022-09-04T01:46:38;14.07;;;12.23;;
12556;SDS011;6344;49.932;8.308;2022-09-04T01:49:12;15.33;;;12.73;;
12556;SDS011;6344;49.932;8.308;2022-09-04T01:51:50;14.93;;;12.20;;
12556;SDS011;6344;49.932;8.308;2022-09-04T01:54:28;13.80;;;10.40;;
12556;SDS011;6344;49.932;8.308;2022-09-04T01:57:09;14.50;;;11.37;;
12556;SDS011;6344;49.932;8.308;2022-09-04T01:59:46;17.53;;;13.80;;
12556;SDS011;6344;49.932;8.308;2022-09-04T02:02:20;16.70;;;13.07;;
12556;SDS011;6344;49.932;8.308;2022-09-04T02:04:58;16.33;;;13.17;;
12556;SDS011;6344;49.932;8.308;2022-09-04T02:07:32;18.10;;;12.67;;
12556;SDS011;6344;49.932;8.308;2022-09-04T02:10:06;16.67;;;13.13;;
12556;SDS011;6344;49.932;8.308;2022-09-04T02:12:41;15.43;;;12.47;;
12556;SDS011;6344;49.932;8.308;2022-09-04T02:15:17;17.80;;;13.23;;
12556;SDS011;6344;49.932;8.308;2022-09-04T02:21:24;16.97;;;13.97;;
12556;SDS011;6344;49.932;8.308;2022-09-04T02:23:58;24.80;;;15.50;;
12556;SDS011;6344;49.932;8.308;2022-09-04T02:26:32;18.33;;;13.33;;
12556;SDS011;6344;49.932;8.308;2022-09-04T02:29:07;18.87;;;13.70;;
12556;SDS011;6344;49.932;8.308;2022-09-04T02:31:41;18.30;;;13.73;;
12556;SDS011;6344;49.932;8.308;2022-09-04T02:34:15;19.50;;;13.40;;
12556;SDS011;6344;49.932;8.308;2022-09-04T02:36:50;16.80;;;12.83;;
12556;SDS011;6344;49.932;8.308;2022-09-04T02:39:26;18.30;;;13.07;;
12556;SDS011;6344;49.932;8.308;2022-09-04T02:42:07;15.23;;;13.17;;
12556;SDS011;6344;49.932;8.308;2022-09-04T02:44:45;23.40;;;15.13;;
12556;SDS011;6344;49.932;8.308;2022-09-04T02:47:20;19.73;;;14.90;;
12556;SDS011;6344;49.932;8.308;2022-09-04T02:49:55;15.87;;;13.43;;
12556;SDS011;6344;49.932;8.308;2022-09-04T02:52:39;21.43;;;14.90;;
12556;SDS011;6344;49.932;8.308;2022-09-04T02:55:19;19.93;;;15.10;;
12556;SDS011;6344;49.932;8.308;2022-09-04T02:57:55;19.10;;;13.30;;
12556;SDS011;6344;49.932;8.308;2022-09-04T03:00:32;22.10;;;14.77;;
12556;SDS011;6344;49.932;8.308;2022-09-04T03:03:06;17.17;;;14.03;;
12556;SDS011;6344;49.932;8.308;2022-09-04T03:05:38;16.53;;;12.77;;
12556;SDS011;6344;49.932;8.308;2022-09-04T03:08:12;17.47;;;13.27;;
12556;SDS011;6344;49.932;8.308;2022-09-04T03:10:45;19.67;;;13.93;;
12556;SDS011;6344;49.932;8.308;2022-09-04T03:13:19;16.93;;;13.37;;
12556;SDS011;6344;49.932;8.308;2022-09-04T03:15:54;16.93;;;14.23;;
12556;SDS011;6344;49.932;8.308;2022-09-04T03:18:28;18.43;;;13.87;;
12556;SDS011;6344;49.932;8.308;2022-09-04T03:20:59;19.07;;;13.83;;
12556;SDS011;6344;49.932;8.308;2022-09-04T03:23:33;16.63;;;13.77;;
12556;SDS011;6344;49.932;8.308;2022-09-04T03:26:12;17.33;;;14.70;;
12556;SDS011;6344;49.932;8.308;2022-09-04T03:28:45;19.40;;;14.40;;
12556;SDS011;6344;49.932;8.308;2022-09-04T03:31:30;19.90;;;13.60;;
12556;SDS011;6344;49.932;8.308;2022-09-04T03:34:11;15.03;;;13.40;;
12556;SDS011;6344;49.932;8.308;2022-09-04T03:36:47;16.67;;;12.77;;
12556;SDS011;6344;49.932;8.308;2022-09-04T03:39:24;16.07;;;14.37;;
12556;SDS011;6344;49.932;8.308;2022-09-04T03:42:04;18.47;;;14.47;;
12556;SDS011;6344;49.932;8.308;2022-09-04T03:44:38;14.93;;;13.33;;
12556;SDS011;6344;49.932;8.308;2022-09-04T03:47:18;18.23;;;14.50;;
12556;SDS011;6344;49.932;8.308;2022-09-04T03:49:59;16.07;;;12.90;;
12556;SDS011;6344;49.932;8.308;2022-09-04T03:52:36;18.43;;;13.30;;
12556;SDS011;6344;49.932;8.308;2022-09-04T03:55:13;14.33;;;12.13;;
12556;SDS011;6344;49.932;8.308;2022-09-04T03:58:00;16.70;;;13.20;;
12556;SDS011;6344;49.932;8.308;2022-09-04T04:00:39;16.33;;;12.80;;
12556;SDS011;6344;49.932;8.308;2022-09-04T04:03:27;16.77;;;12.73;;
12556;SDS011;6344;49.932;8.308;2022-09-04T04:06:10;18.47;;;14.03;;
12556;SDS011;6344;49.932;8.308;2022-09-04T04:08:48;24.80;;;15.77;;
12556;SDS011;6344;49.932;8.308;2022-09-04T04:11:49;22.73;;;15.10;;
12556;SDS011;6344;49.932;8.308;2022-09-04T04:14:30;24.43;;;13.37;;
12556;SDS011;6344;49.932;8.308;2022-09-04T04:17:09;30.20;;;15.07;;
12556;SDS011;6344;49.932;8.308;2022-09-04T04:19:52;27.80;;;14.90;;
12556;SDS011;6344;49.932;8.308;2022-09-04T04:22:37;24.53;;;15.93;;
12556;SDS011;6344;49.932;8.308;2022-09-04T04:25:26;26.37;;;14.90;;
12556;SDS011;6344;49.932;8.308;2022-09-04T04:28:12;29.70;;;15.23;;
12556;SDS011;6344;49.932;8.308;2022-09-04T04:30:49;24.97;;;13.80;;
12556;SDS011;6344;49.932;8.308;2022-09-04T04:33:22;30.00;;;14.00;;
12556;SDS011;6344;49.932;8.308;2022-09-04T04:36:05;30.67;;;13.77;;
12556;SDS011;6344;49.932;8.308;2022-09-04T04:38:54;28.07;;;15.00;;
12556;SDS011;6344;49.932;8.308;2022-09-04T04:41:48;26.17;;;13.60;;
12556;SDS011;6344;49.932;8.308;2022-09-04T04:44:44;26.80;;;13.50;;
12556;SDS011;6344;49.932;8.308;2022-09-04T04:47:45;24.00;;;13.30;;
12556;SDS011;6344;49.932;8.308;2022-09-04T04:50:27;23.13;;;13.40;;
12556;SDS011;6344;49.932;8.308;2022-09-04T04:53:08;21.70;;;12.67;;
12556;SDS011;6344;49.932;8.308;2022-09-04T04:55:43;24.63;;;12.80;;
12556;SDS011;6344;49.932;8.308;2022-09-04T04:58:19;22.37;;;12.70;;
12556;SDS011;6344;49.932;8.308;2022-09-04T05:00:54;19.10;;;10.47;;
12556;SDS011;6344;49.932;8.308;2022-09-04T05:03:32;19.73;;;12.87;;
12556;SDS011;6344;49.932;8.308;2022-09-04T05:06:12;21.80;;;12.03;;
12556;SDS011;6344;49.932;8.308;2022-09-04T05:08:46;19.80;;;11.20;;
12556;SDS011;6344;49.932;8.308;2022-09-04T05:11:22;18.90;;;10.70;;
12556;SDS011;6344;49.932;8.308;2022-09-04T05:13:57;16.43;;;10.70;;
12556;SDS011;6344;49.932;8.308;2022-09-04T05:16:33;17.13;;;10.10;;
12556;SDS011;6344;49.932;8.308;2022-09-04T05:19:14;13.10;;;9.83;;
12556;SDS011;6344;49.932;8.308;2022-09-04T05:21:48;14.57;;;10.77;;
12556;SDS011;6344;49.932;8.308;2022-09-04T05:24:24;14.33;;;9.60;;
12556;SDS011;6344;49.932;8.308;2022-09-04T05:26:59;12.80;;;9.20;;
12556;SDS011;6344;49.932;8.308;2022-09-04T05:29:33;12.47;;;9.00;;
12556;SDS011;6344;49.932;8.308;2022-09-04T05:32:12;14.30;;;9.60;;
12556;SDS011;6344;49.932;8.308;2022-09-04T05:34:51;17.47;;;9.00;;
12556;SDS011;6344;49.932;8.308;2022-09-04T05:37:28;23.07;;;9.73;;
12556;SDS011;6344;49.932;8.308;2022-09-04T05:40:01;15.20;;;8.77;;
12556;SDS011;6344;49.932;8.308;2022-09-04T05:42:42;12.07;;;8.30;;
12556;SDS011;6344;49.932;8.308;2022-09-04T05:45:22;17.50;;;9.40;;
12556;SDS011;6344;49.932;8.308;2022-09-04T05:47:57;15.93;;;8.77;;
12556;SDS011;6344;49.932;8.308;2022-09-04T05:50:37;14.53;;;8.50;;
12556;SDS011;6344;49.932;8.308;2022-09-04T05:53:23;17.17;;;9.67;;
12556;SDS011;6344;49.932;8.308;2022-09-04T05:59:01;13.40;;;9.40;;
12556;SDS011;6344;49.932;8.308;2022-09-04T06:01:53;13.90;;;8.50;;
12556;SDS011;6344;49.932;8.308;2022-09-04T06:04:35;12.43;;;8.90;;
12556;SDS011;6344;49.932;8.308;2022-09-04T06:07:20;12.93;;;8.73;;
12556;SDS011;6344;49.932;8.308;2022-09-04T06:09:57;15.67;;;8.90;;
12556;SDS011;6344;49.932;8.308;2022-09-04T06:12:33;13.20;;;8.20;;
12556;SDS011;6344;49.932;8.308;2022-09-04T06:15:24;12.23;;;8.90;;
12556;SDS011;6344;49.932;8.308;2022-09-04T06:18:10;11.40;;;8.43;;
12556;SDS011;6344;49.932;8.308;2022-09-04T06:21:03;13.97;;;9.80;;
12556;SDS011;6344;49.932;8.308;2022-09-04T06:23:59;12.77;;;8.70;;
12556;SDS011;6344;49.932;8.308;2022-09-04T06:29:44;14.57;;;10.27;;
12556;SDS011;6344;49.932;8.308;2022-09-04T06:35:35;14.60;;;13.10;;
12556;SDS011;6344;49.932;8.308;2022-09-04T06:38:21;15.03;;;12.00;;
12556;SDS011;6344;49.932;8.308;2022-09-04T06:41:05;12.90;;;11.57;;
12556;SDS011;6344;49.932;8.308;2022-09-04T06:43:46;15.90;;;12.13;;
12556;SDS011;6344;49.932;8.308;2022-09-04T06:46:22;14.37;;;11.83;;
12556;SDS011;6344;49.932;8.308;2022-09-04T06:48:56;14.47;;;12.30;;
12556;SDS011;6344;49.932;8.308;2022-09-04T06:51:33;16.50;;;14.17;;
12556;SDS011;6344;49.932;8.308;2022-09-04T06:54:14;32.17;;;28.90;;
12556;SDS011;6344;49.932;8.308;2022-09-04T06:56:54;14.57;;;12.37;;
12556;SDS011;6344;49.932;8.308;2022-09-04T06:59:34;13.97;;;11.70;;
12556;SDS011;6344;49.932;8.308;2022-09-04T07:02:17;15.67;;;12.40;;
12556;SDS011;6344;49.932;8.308;2022-09-04T07:04:55;13.70;;;11.10;;
12556;SDS011;6344;49.932;8.308;2022-09-04T07:07:31;16.83;;;11.37;;
12556;SDS011;6344;49.932;8.308;2022-09-04T07:10:06;13.87;;;12.03;;
12556;SDS011;6344;49.932;8.308;2022-09-04T07:12:44;16.53;;;12.97;;
12556;SDS011;6344;49.932;8.308;2022-09-04T07:18:29;20.50;;;14.30;;
12556;SDS011;6344;49.932;8.308;2022-09-04T07:21:10;15.23;;;13.60;;
12556;SDS011;6344;49.932;8.308;2022-09-04T07:23:41;16.57;;;13.33;;
12556;SDS011;6344;49.932;8.308;2022-09-04T07:26:18;20.30;;;14.37;;
12556;SDS011;6344;49.932;8.308;2022-09-04T07:29:04;14.97;;;12.70;;
12556;SDS011;6344;49.932;8.308;2022-09-04T07:31:37;16.77;;;14.20;;
12556;SDS011;6344;49.932;8.308;2022-09-04T07:34:10;15.70;;;12.70;;
12556;SDS011;6344;49.932;8.308;2022-09-04T07:36:43;14.87;;;13.13;;
12556;SDS011;6344;49.932;8.308;2022-09-04T07:39:16;14.40;;;12.90;;
12556;SDS011;6344;49.932;8.308;2022-09-04T07:41:48;14.83;;;13.30;;
12556;SDS011;6344;49.932;8.308;2022-09-04T07:44:22;16.27;;;13.90;;
12556;SDS011;6344;49.932;8.308;2022-09-04T07:46:57;15.23;;;13.43;;
12556;SDS011;6344;49.932;8.308;2022-09-04T07:49:41;20.63;;;14.63;;
12556;SDS011;6344;49.932;8.308;2022-09-04T07:52:18;18.10;;;15.70;;
12556;SDS011;6344;49.932;8.308;2022-09-04T07:55:15;18.17;;;15.00;;
12556;SDS011;6344;49.932;8.308;2022-09-04T07:58:06;19.47;;;15.37;;
12556;SDS011;6344;49.932;8.308;2022-09-04T08:01:01;20.27;;;17.17;;
12556;SDS011;6344;49.932;8.308;2022-09-04T08:03:46;16.33;;;14.53;;
12556;SDS011;6344;49.932;8.308;2022-09-04T08:06:30;16.90;;;14.57;;
12556;SDS011;6344;49.932;8.308;2022-09-04T08:09:16;20.13;;;16.30;;
12556;SDS011;6344;49.932;8.308;2022-09-04T08:12:04;19.47;;;16.33;;
12556;SDS011;6344;49.932;8.308;2022-09-04T08:14:51;18.50;;;16.50;;
12556;SDS011;6344;49.932;8.308;2022-09-04T08:20:12;17.60;;;15.80;;
12556;SDS011;6344;49.932;8.308;2022-09-04T08:22:51;16.80;;;15.10;;
12556;SDS011;6344;49.932;8.308;2022-09-04T08:25:24;16.20;;;14.60;;
12556;SDS011;6344;49.932;8.308;2022-09-04T08:30:44;26.03;;;22.90;;
12556;SDS011;6344;49.932;8.308;2022-09-04T08:36:21;18.80;;;16.90;;
12556;SDS011;6344;49.932;8.308;2022-09-04T08:39:01;17.70;;;15.90;;
12556;SDS011;6344;49.932;8.308;2022-09-04T08:54:11;15.93;;;14.57;;
12556;SDS011;6344;49.932;8.308;2022-09-04T08:56:58;17.10;;;15.60;;
12556;SDS011;6344;49.932;8.308;2022-09-04T09:02:38;16.47;;;15.07;;
12556;SDS011;6344;49.932;8.308;2022-09-04T09:11:51;17.50;;;15.87;;
12556;SDS011;6344;49.932;8.308;2022-09-04T09:14:42;17.07;;;15.40;;
12556;SDS011;6344;49.932;8.308;2022-09-04T09:17:25;16.90;;;15.40;;
12556;SDS011;6344;49.932;8.308;2022-09-04T09:20:10;16.57;;;15.13;;
12556;SDS011;6344;49.932;8.308;2022-09-04T09:26:05;16.77;;;15.43;;
12556;SDS011;6344;49.932;8.308;2022-09-04T09:29:08;15.53;;;14.30;;
12556;SDS011;6344;49.932;8.308;2022-09-04T09:32:11;16.33;;;15.00;;
12556;SDS011;6344;49.932;8.308;2022-09-04T09:35:21;16.00;;;14.80;;
12556;SDS011;6344;49.932;8.308;2022-09-04T09:38:19;17.07;;;15.63;;
12556;SDS011;6344;49.932;8.308;2022-09-04T09:41:16;16.00;;;14.70;;
12556;SDS011;6344;49.932;8.308;2022-09-04T09:44:16;15.90;;;14.60;;
12556;SDS011;6344;49.932;8.308;2022-09-04T09:47:06;15.77;;;14.37;;
12556;SDS011;6344;49.932;8.308;2022-09-04T09:53:16;16.07;;;14.80;;
12556;SDS011;6344;49.932;8.308;2022-09-04T09:56:20;17.50;;;16.00;;
12556;SDS011;6344;49.932;8.308;2022-09-04T09:59:04;16.80;;;15.47;;
12556;SDS011;6344;49.932;8.308;2022-09-04T10:02:06;16.77;;;15.57;;
12556;SDS011;6344;49.932;8.308;2022-09-04T10:04:54;14.77;;;13.67;;
12556;SDS011;6344;49.932;8.308;2022-09-04T10:07:46;15.93;;;14.63;;
12556;SDS011;6344;49.932;8.308;2022-09-04T10:10:37;17.00;;;15.70;;
12556;SDS011;6344;49.932;8.308;2022-09-04T10:13:29;15.57;;;14.33;;
12556;SDS011;6344;49.932;8.308;2022-09-04T10:16:21;13.83;;;12.83;;
12556;SDS011;6344;49.932;8.308;2022-09-04T10:19:06;14.63;;;13.47;;
12556;SDS011;6344;49.932;8.308;2022-09-04T10:28:14;15.30;;;14.10;;
12556;SDS011;6344;49.932;8.308;2022-09-04T10:34:14;12.33;;;11.53;;
12556;SDS011;6344;49.932;8.308;2022-09-04T10:36:56;12.73;;;11.83;;
12556;SDS011;6344;49.932;8.308;2022-09-04T10:39:33;11.10;;;10.40;;
12556;SDS011;6344;49.932;8.308;2022-09-04T10:42:30;12.30;;;11.50;;
12556;SDS011;6344;49.932;8.308;2022-09-04T10:45:13;13.47;;;12.43;;
12556;SDS011;6344;49.932;8.308;2022-09-04T10:47:49;13.00;;;12.20;;
12556;SDS011;6344;49.932;8.308;2022-09-04T10:50:41;13.97;;;12.87;;
12556;SDS011;6344;49.932;8.308;2022-09-04T10:56:30;12.07;;;11.17;;
12556;SDS011;6344;49.932;8.308;2022-09-04T11:01:58;12.47;;;11.60;;
12556;SDS011;6344;49.932;8.308;2022-09-04T11:04:51;12.10;;;11.30;;
12556;SDS011;6344;49.932;8.308;2022-09-04T11:11:05;11.70;;;10.90;;
12556;SDS011;6344;49.932;8.308;2022-09-04T11:19:48;11.40;;;10.70;;
12556;SDS011;6344;49.932;8.308;2022-09-04T11:26:06;11.87;;;11.17;;
12556;SDS011;6344;49.932;8.308;2022-09-04T11:28:55;10.40;;;9.60;;
12556;SDS011;6344;49.932;8.308;2022-09-04T11:31:57;10.40;;;9.80;;
12556;SDS011;6344;49.932;8.308;2022-09-04T11:34:54;10.80;;;10.20;;
12556;SDS011;6344;49.932;8.308;2022-09-04T11:37:58;10.90;;;10.20;;
12556;SDS011;6344;49.932;8.308;2022-09-04T11:40:45;8.90;;;8.30;;
12556;SDS011;6344;49.932;8.308;2022-09-04T11:43:36;7.07;;;6.67;;
12556;SDS011;6344;49.932;8.308;2022-09-04T11:46:50;9.40;;;8.80;;
12556;SDS011;6344;49.932;8.308;2022-09-04T11:49:47;7.57;;;7.17;;
12556;SDS011;6344;49.932;8.308;2022-09-04T11:52:32;7.47;;;7.07;;
12556;SDS011;6344;49.932;8.308;2022-09-04T11:55:20;8.60;;;8.10;;
12556;SDS011;6344;49.932;8.308;2022-09-04T12:00:49;6.40;;;6.10;;
12556;SDS011;6344;49.932;8.308;2022-09-04T12:03:31;5.60;;;5.30;;
12556;SDS011;6344;49.932;8.308;2022-09-04T12:09:08;4.30;;;4.10;;
12556;SDS011;6344;49.932;8.308;2022-09-04T12:11:58;4.77;;;4.57;;
12556;SDS011;6344;49.932;8.308;2022-09-04T12:14:50;4.20;;;4.00;;
12556;SDS011;6344;49.932;8.308;2022-09-04T12:17:39;3.60;;;3.40;;
12556;SDS011;6344;49.932;8.308;2022-09-04T12:23:22;4.00;;;3.70;;
12556;SDS011;6344;49.932;8.308;2022-09-04T12:26:03;3.50;;;3.30;;
12556;SDS011;6344;49.932;8.308;2022-09-04T12:28:58;3.60;;;3.37;;
12556;SDS011;6344;49.932;8.308;2022-09-04T12:31:59;2.53;;;2.43;;
12556;SDS011;6344;49.932;8.308;2022-09-04T12:34:55;2.80;;;2.70;;
12556;SDS011;6344;49.932;8.308;2022-09-04T12:37:57;2.90;;;2.80;;
12556;SDS011;6344;49.932;8.308;2022-09-04T12:40:45;2.90;;;2.70;;
12556;SDS011;6344;49.932;8.308;2022-09-04T12:43:23;4.00;;;3.70;;
12556;SDS011;6344;49.932;8.308;2022-09-04T12:46:08;3.70;;;3.50;;
12556;SDS011;6344;49.932;8.308;2022-09-04T12:48:51;4.70;;;3.40;;
12556;SDS011;6344;49.932;8.308;2022-09-04T12:51:27;3.13;;;3.03;;
12556;SDS011;6344;49.932;8.308;2022-09-04T12:54:06;3.67;;;3.33;;
12556;SDS011;6344;49.932;8.308;2022-09-04T12:56:50;2.80;;;2.70;;
12556;SDS011;6344;49.932;8.308;2022-09-04T12:59:39;2.70;;;2.50;;
12556;SDS011;6344;49.932;8.308;2022-09-04T13:02:21;2.87;;;2.67;;
12556;SDS011;6344;49.932;8.308;2022-09-04T13:04:59;2.47;;;2.37;;
12556;SDS011;6344;49.932;8.308;2022-09-04T13:07:38;3.47;;;3.27;;
12556;SDS011;6344;49.932;8.308;2022-09-04T13:10:19;3.37;;;3.27;;
12556;SDS011;6344;49.932;8.308;2022-09-04T13:12:58;3.00;;;2.90;;
12556;SDS011;6344;49.932;8.308;2022-09-04T13:15:40;3.10;;;2.93;;
12556;SDS011;6344;49.932;8.308;2022-09-04T13:18:18;3.20;;;3.00;;
12556;SDS011;6344;49.932;8.308;2022-09-04T13:20:58;3.40;;;3.20;;
12556;SDS011;6344;49.932;8.308;2022-09-04T13:23:39;3.30;;;3.10;;
12556;SDS011;6344;49.932;8.308;2022-09-04T13:26:34;3.20;;;3.00;;
12556;SDS011;6344;49.932;8.308;2022-09-04T13:29:14;3.07;;;2.97;;
12556;SDS011;6344;49.932;8.308;2022-09-04T13:31:54;3.13;;;3.03;;
12556;SDS011;6344;49.932;8.308;2022-09-04T13:34:31;3.03;;;2.83;;
12556;SDS011;6344;49.932;8.308;2022-09-04T13:37:17;3.10;;;3.00;;
12556;SDS011;6344;49.932;8.308;2022-09-04T13:40:06;3.57;;;3.37;;
12556;SDS011;6344;49.932;8.308;2022-09-04T13:42:56;3.00;;;2.80;;
12556;SDS011;6344;49.932;8.308;2022-09-04T13:45:45;2.93;;;2.80;;
12556;SDS011;6344;49.932;8.308;2022-09-04T13:48:15;3.17;;;2.97;;
12556;SDS011;6344;49.932;8.308;2022-09-04T13:50:52;2.97;;;2.87;;
12556;SDS011;6344;49.932;8.308;2022-09-04T13:53:22;3.10;;;3.00;;
12556;SDS011;6344;49.932;8.308;2022-09-04T13:55:53;3.00;;;2.90;;
12556;SDS011;6344;49.932;8.308;2022-09-04T13:58:25;3.10;;;2.80;;
12556;SDS011;6344;49.932;8.308;2022-09-04T14:00:56;3.00;;;2.90;;
12556;SDS011;6344;49.932;8.308;2022-09-04T14:03:29;3.13;;;3.03;;
12556;SDS011;6344;49.932;8.308;2022-09-04T14:06:00;3.23;;;3.13;;
12556;SDS011;6344;49.932;8.308;2022-09-04T14:08:30;2.97;;;2.77;;
12556;SDS011;6344;49.932;8.308;2022-09-04T14:14:00;2.93;;;2.83;;
12556;SDS011;6344;49.932;8.308;2022-09-04T14:16:43;3.23;;;2.93;;
12556;SDS011;6344;49.932;8.308;2022-09-04T14:19:14;2.87;;;2.67;;
12556;SDS011;6344;49.932;8.308;2022-09-04T14:22:04;3.13;;;2.90;;
12556;SDS011;6344;49.932;8.308;2022-09-04T14:25:02;2.60;;;2.50;;
12556;SDS011;6344;49.932;8.308;2022-09-04T14:27:36;2.93;;;2.83;;
12556;SDS011;6344;49.932;8.308;2022-09-04T14:30:12;2.90;;;2.70;;
12556;SDS011;6344;49.932;8.308;2022-09-04T14:32:47;3.03;;;2.80;;
12556;SDS011;6344;49.932;8.308;2022-09-04T14:35:24;2.77;;;2.67;;
12556;SDS011;6344;49.932;8.308;2022-09-04T14:38:00;3.00;;;2.90;;
12556;SDS011;6344;49.932;8.308;2022-09-04T14:40:44;3.07;;;2.90;;
12556;SDS011;6344;49.932;8.308;2022-09-04T14:43:22;2.93;;;2.70;;
12556;SDS011;6344;49.932;8.308;2022-09-04T14:46:04;5.53;;;2.90;;
12556;SDS011;6344;49.932;8.308;2022-09-04T14:48:43;2.57;;;2.47;;
12556;SDS011;6344;49.932;8.308;2022-09-04T14:51:15;3.50;;;3.30;;
12556;SDS011;6344;49.932;8.308;2022-09-04T14:53:54;2.90;;;2.80;;
12556;SDS011;6344;49.932;8.308;2022-09-04T14:56:25;4.03;;;2.90;;
12556;SDS011;6344;49.932;8.308;2022-09-04T14:58:58;2.87;;;2.77;;
12556;SDS011;6344;49.932;8.308;2022-09-04T15:01:32;2.80;;;2.70;;
12556;SDS011;6344;49.932;8.308;2022-09-04T15:04:03;2.90;;;2.80;;
12556;SDS011;6344;49.932;8.308;2022-09-04T15:06:39;3.00;;;2.83;;
12556;SDS011;6344;49.932;8.308;2022-09-04T15:09:16;2.60;;;2.50;;
12556;SDS011;6344;49.932;8.308;2022-09-04T15:11:49;2.90;;;2.70;;
12556;SDS011;6344;49.932;8.308;2022-09-04T15:14:21;2.80;;;2.70;;
12556;SDS011;6344;49.932;8.308;2022-09-04T15:16:57;3.37;;;3.17;;
12556;SDS011;6344;49.932;8.308;2022-09-04T15:19:33;2.80;;;2.60;;
12556;SDS011;6344;49.932;8.308;2022-09-04T15:22:09;2.80;;;2.60;;
12556;SDS011;6344;49.932;8.308;2022-09-04T15:24:46;3.23;;;3.07;;
12556;SDS011;6344;49.932;8.308;2022-09-04T15:27:19;3.50;;;3.30;;
12556;SDS011;6344;49.932;8.308;2022-09-04T15:32:42;3.10;;;2.90;;
12556;SDS011;6344;49.932;8.308;2022-09-04T15:35:12;2.87;;;2.77;;
12556;SDS011;6344;49.932;8.308;2022-09-04T15:37:42;3.03;;;2.93;;
12556;SDS011;6344;49.932;8.308;2022-09-04T15:40:13;3.00;;;2.90;;
12556;SDS011;6344;49.932;8.308;2022-09-04T15:42:55;2.90;;;2.80;;
12556;SDS011;6344;49.932;8.308;2022-09-04T15:45:34;3.43;;;3.33;;
12556;SDS011;6344;49.932;8.308;2022-09-04T15:48:17;3.03;;;2.90;;
12556;SDS011;6344;49.932;8.308;2022-09-04T15:50:51;3.40;;;3.10;;
12556;SDS011;6344;49.932;8.308;2022-09-04T15:53:28;3.40;;;3.20;;
12556;SDS011;6344;49.932;8.308;2022-09-04T15:56:02;3.00;;;2.90;;
12556;SDS011;6344;49.932;8.308;2022-09-04T15:58:37;3.87;;;3.67;;
12556;SDS011;6344;49.932;8.308;2022-09-04T16:01:13;3.70;;;3.60;;
12556;SDS011;6344;49.932;8.308;2022-09-04T16:03:45;3.23;;;3.13;;
12556;SDS011;6344;49.932;8.308;2022-09-04T16:06:21;3.13;;;3.03;;
12556;SDS011;6344;49.932;8.308;2022-09-04T16:08:53;3.30;;;3.10;;
12556;SDS011;6344;49.932;8.308;2022-09-04T16:11:27;3.23;;;3.03;;
12556;SDS011;6344;49.932;8.308;2022-09-04T16:14:00;3.43;;;3.23;;
12556;SDS011;6344;49.932;8.308;2022-09-04T16:16:31;3.70;;;3.50;;
12556;SDS011;6344;49.932;8.308;2022-09-04T16:19:15;3.90;;;3.60;;
12556;SDS011;6344;49.932;8.308;2022-09-04T16:21:53;3.57;;;3.40;;
12556;SDS011;6344;49.932;8.308;2022-09-04T16:24:32;3.30;;;3.10;;
12556;SDS011;6344;49.932;8.308;2022-09-04T16:27:04;3.27;;;3.07;;
12556;SDS011;6344;49.932;8.308;2022-09-04T16:29:35;3.53;;;3.23;;
12556;SDS011;6344;49.932;8.308;2022-09-04T16:32:06;3.97;;;3.67;;
12556;SDS011;6344;49.932;8.308;2022-09-04T16:34:37;3.43;;;3.23;;
12556;SDS011;6344;49.932;8.308;2022-09-04T16:37:12;3.80;;;3.60;;
12556;SDS011;6344;49.932;8.308;2022-09-04T16:42:29;3.43;;;3.23;;
12556;SDS011;6344;49.932;8.308;2022-09-04T16:45:06;4.23;;;3.10;;
12556;SDS011;6344;49.932;8.308;2022-09-04T16:47:40;3.43;;;3.27;;
12556;SDS011;6344;49.932;8.308;2022-09-04T16:50:11;3.60;;;3.40;;
12556;SDS011;6344;49.932;8.308;2022-09-04T16:52:51;3.20;;;3.10;;
12556;SDS011;6344;49.932;8.308;2022-09-04T16:55:35;3.40;;;3.30;;
12556;SDS011;6344;49.932;8.308;2022-09-04T16:58:20;3.70;;;3.50;;
12556;SDS011;6344;49.932;8.308;2022-09-04T17:01:01;3.30;;;3.10;;
12556;SDS011;6344;49.932;8.308;2022-09-04T17:03:38;4.03;;;3.83;;
12556;SDS011;6344;49.932;8.308;2022-09-04T17:06:13;3.83;;;3.63;;
12556;SDS011;6344;49.932;8.308;2022-09-04T17:08:47;3.80;;;3.60;;
12556;SDS011;6344;49.932;8.308;2022-09-04T17:11:19;3.50;;;3.30;;
12556;SDS011;6344;49.932;8.308;2022-09-04T17:13:56;3.57;;;3.37;;
12556;SDS011;6344;49.932;8.308;2022-09-04T17:16:31;3.33;;;3.23;;
12556;SDS011;6344;49.932;8.308;2022-09-04T17:19:01;4.40;;;4.10;;
12556;SDS011;6344;49.932;8.308;2022-09-04T17:21:29;4.10;;;3.90;;
12556;SDS011;6344;49.932;8.308;2022-09-04T17:24:27;3.80;;;3.60;;
12556;SDS011;6344;49.932;8.308;2022-09-04T17:27:00;4.20;;;4.00;;
12556;SDS011;6344;49.932;8.308;2022-09-04T17:29:36;4.00;;;3.80;;
12556;SDS011;6344;49.932;8.308;2022-09-04T17:32:12;4.07;;;3.87;;
12556;SDS011;6344;49.932;8.308;2022-09-04T17:34:44;5.27;;;4.87;;
12556;SDS011;6344;49.932;8.308;2022-09-04T17:37:17;5.37;;;5.07;;
12556;SDS011;6344;49.932;8.308;2022-09-04T17:39:52;5.40;;;5.00;;
12556;SDS011;6344;49.932;8.308;2022-09-04T17:42:25;5.10;;;4.80;;
12556;SDS011;6344;49.932;8.308;2022-09-04T17:44:55;4.93;;;4.53;;
12556;SDS011;6344;49.932;8.308;2022-09-04T17:47:31;4.43;;;4.13;;
12556;SDS011;6344;49.932;8.308;2022-09-04T17:50:06;5.40;;;5.07;;
12556;SDS011;6344;49.932;8.308;2022-09-04T17:52:52;4.50;;;4.20;;
12556;SDS011;6344;49.932;8.308;2022-09-04T17:55:21;4.93;;;4.63;;
12556;SDS011;6344;49.932;8.308;2022-09-04T17:57:50;6.27;;;5.80;;